Time;durP1;ratioP1;P1;durP2;ratioP2;P2;SDS_P1;SDS_P2;PMS_P1;PMS_P2;Temp;Humidity;BMP_temperature;BMP_pressure;BME280_temperature;BME280_humidity;BME280_pressure;Samples;Min_cycle;Max_cycle;Signal;HPM_P1;HPM_P2
2022/02/26 00:01:55;;;;;;;6.85;5.43;;;8.30;90.60;;;;;;5114500;28;20172;-69
2022/02/26 00:04:23;;;;;;;5.10;4.20;;;8.30;90.40;;;;;;5115007;28;20187;-74
2022/02/26 00:06:49;;;;;;;16.70;9.43;;;8.20;90.50;;;;;;5114647;28;20172;-69
2022/02/26 00:09:28;;;;;;;23.38;11.23;;;8.20;90.60;;;;;;5116354;28;20176;-73
2022/02/26 00:11:55;;;;;;;25.85;14.00;;;8.20;90.70;;;;;;5114474;28;20191;-73
2022/02/26 00:14:23;;;;;;;31.35;13.07;;;8.10;90.60;;;;;;5115031;28;20237;-69
2022/02/26 00:16:50;;;;;;;18.25;10.40;;;8.20;90.70;;;;;;5115866;28;20172;-74
2022/02/26 00:19:17;;;;;;;23.13;10.23;;;8.10;90.80;;;;;;5114929;28;20184;-69
2022/02/26 00:21:46;;;;;;;6.50;3.90;;;8.20;91.00;;;;;;5114173;28;20541;-74
2022/02/26 00:24:15;;;;;;;24.75;11.30;;;8.20;90.90;;;;;;5114667;28;20694;-73
2022/02/26 00:26:43;;;;;;;19.00;9.13;;;8.20;90.80;;;;;;5114257;28;20176;-69
2022/02/26 00:29:10;;;;;;;36.40;16.48;;;8.10;90.90;;;;;;5114189;28;20351;-68
2022/02/26 00:31:45;;;;;;;11.75;5.85;;;8.10;90.70;;;;;;5114144;28;20228;-73
2022/02/26 00:34:15;;;;;;;10.68;5.75;;;8.10;90.50;;;;;;5113473;28;20195;-73
2022/02/26 00:36:42;;;;;;;16.48;9.10;;;8.10;90.40;;;;;;5113980;28;20179;-73
2022/02/26 00:39:14;;;;;;;33.78;15.38;;;8.10;90.40;;;;;;5114250;28;20645;-73
2022/02/26 00:41:41;;;;;;;24.17;10.48;;;8.10;90.60;;;;;;5115176;28;20172;-74
2022/02/26 00:44:08;;;;;;;21.63;10.55;;;8.10;90.70;;;;;;5114192;28;20580;-69
2022/02/26 00:46:35;;;;;;;12.95;8.40;;;8.10;90.80;;;;;;5113922;28;20171;-69
2022/02/26 00:52:05;;;;;;;23.40;11.40;;;8.10;91.40;;;;;;5115420;28;20175;-73
2022/02/26 00:54:33;;;;;;;23.98;11.20;;;8.10;91.70;;;;;;5113898;28;20224;-73
2022/02/26 00:57:00;;;;;;;46.80;18.77;;;8.10;91.90;;;;;;5113719;28;20199;-69
2022/02/26 00:59:40;;;;;;;47.20;20.50;;;8.00;92.20;;;;;;5113948;28;20194;-73
2022/02/26 01:02:09;;;;;;;22.80;11.68;;;8.00;92.60;;;;;;5112987;28;20660;-69
2022/02/26 01:04:38;;;;;;;28.85;12.95;;;8.00;93.00;;;;;;5113645;28;20198;-74
2022/02/26 01:07:09;;;;;;;23.90;11.10;;;8.00;93.30;;;;;;5113280;28;20227;-74
2022/02/26 01:09:41;;;;;;;25.67;13.77;;;8.00;93.60;;;;;;5113176;28;20183;-73
2022/02/26 01:12:10;;;;;;;26.85;14.18;;;7.90;93.90;;;;;;5113173;28;20199;-69
2022/02/26 01:14:38;;;;;;;32.15;17.73;;;7.90;94.20;;;;;;5113533;28;20180;-69
2022/02/26 01:17:17;;;;;;;54.88;25.23;;;7.90;94.50;;;;;;5113264;28;20203;-74
2022/02/26 01:19:48;;;;;;;20.92;10.25;;;7.90;94.90;;;;;;5112237;28;20219;-69
2022/02/26 01:22:18;;;;;;;29.15;13.77;;;7.90;95.20;;;;;;5113163;28;20214;-74
2022/02/26 01:24:46;;;;;;;31.50;16.70;;;7.80;95.50;;;;;;5113397;28;20539;-74
2022/02/26 01:27:13;;;;;;;24.10;13.23;;;7.80;95.90;;;;;;5113098;28;20199;-69
2022/02/26 01:29:56;;;;;;;30.98;16.38;;;7.80;96.20;;;;;;5112977;28;20232;-73
2022/02/26 01:32:25;;;;;;;33.33;18.17;;;7.80;96.50;;;;;;5113275;28;20260;-74
2022/02/26 01:35:01;;;;;;;20.25;11.85;;;7.70;96.80;;;;;;5114461;28;20595;-74
2022/02/26 01:37:27;;;;;;;27.38;14.05;;;7.70;97.10;;;;;;5113218;28;20601;-70
2022/02/26 01:39:54;;;;;;;24.60;13.68;;;7.70;97.50;;;;;;5112966;28;20273;-69
2022/02/26 01:42:21;;;;;;;24.67;13.27;;;7.70;97.90;;;;;;5112944;28;20720;-69
2022/02/26 01:44:53;;;;;;;31.27;15.75;;;7.60;98.30;;;;;;5112935;28;20191;-73
2022/02/26 01:47:20;;;;;;;25.65;14.75;;;7.60;98.80;;;;;;5112672;28;20191;-69
2022/02/26 01:49:53;;;;;;;23.85;13.15;;;7.60;99.20;;;;;;5112820;28;20184;-74
2022/02/26 01:52:22;;;;;;;33.08;16.70;;;7.60;99.90;;;;;;5112983;28;20202;-74
2022/02/26 01:54:49;;;;;;;18.58;10.95;;;7.60;99.90;;;;;;5113256;28;20179;-69
2022/02/26 01:57:20;;;;;;;21.70;12.57;;;7.60;99.90;;;;;;5113061;28;20195;-74
2022/02/26 01:59:50;;;;;;;22.17;11.90;;;7.60;99.90;;;;;;5113106;28;20183;-74
2022/02/26 02:02:20;;;;;;;23.30;12.35;;;7.60;99.90;;;;;;5112707;28;20237;-74
2022/02/26 02:04:47;;;;;;;21.58;13.63;;;7.60;99.90;;;;;;5112792;28;20184;-69
2022/02/26 02:07:18;;;;;;;27.85;14.68;;;7.50;99.90;;;;;;5112540;28;20572;-74
2022/02/26 02:09:48;;;;;;;24.13;12.43;;;7.50;99.90;;;;;;5112843;28;20206;-74
2022/02/26 02:12:18;;;;;;;19.15;10.95;;;7.40;99.90;;;;;;5112326;28;20621;-74
2022/02/26 02:14:47;;;;;;;18.45;11.63;;;7.40;99.90;;;;;;5114139;28;20211;-74
2022/02/26 02:17:23;;;;;;;24.50;12.48;;;7.40;99.90;;;;;;5113008;28;20664;-74
2022/02/26 02:19:50;;;;;;;14.52;10.05;;;7.30;99.90;;;;;;5112651;28;20183;-69
2022/02/26 02:22:28;;;;;;;10.80;8.05;;;7.20;99.90;;;;;;5112210;28;20686;-74
2022/02/26 02:24:54;;;;;;;13.25;9.30;;;7.10;99.90;;;;;;5114614;28;20187;-69
2022/02/26 02:27:21;;;;;;;13.93;9.07;;;7.10;99.90;;;;;;5112385;28;20195;-69
2022/02/26 02:29:52;;;;;;;9.30;8.38;;;7.10;99.90;;;;;;5112357;28;20277;-74
2022/02/26 02:32:27;;;;;;;10.80;8.27;;;7.10;99.90;;;;;;5112167;28;20207;-74
2022/02/26 02:35:01;;;;;;;10.65;7.20;;;7.00;99.90;;;;;;5112497;28;20213;-68
2022/02/26 02:37:30;;;;;;;12.45;9.25;;;7.00;99.90;;;;;;5112513;28;20195;-74
2022/02/26 02:39:56;;;;;;;11.32;8.65;;;7.00;99.90;;;;;;5112552;28;20184;-69
2022/02/26 02:42:23;;;;;;;8.85;7.93;;;7.00;99.90;;;;;;5112414;28;20207;-69
2022/02/26 02:44:49;;;;;;;9.68;7.95;;;6.90;99.90;;;;;;5112699;28;20531;-70
2022/02/26 02:47:16;;;;;;;12.25;7.95;;;6.90;99.90;;;;;;5112099;28;20196;-74
2022/02/26 02:49:45;;;;;;;9.48;8.18;;;6.80;99.90;;;;;;5112420;28;20180;-74
2022/02/26 02:52:13;;;;;;;9.35;8.07;;;6.70;99.90;;;;;;5112249;28;20191;-69
2022/02/26 02:54:39;;;;;;;13.07;8.40;;;6.70;99.90;;;;;;5114008;28;20172;-69
2022/02/26 02:57:05;;;;;;;11.48;8.10;;;6.70;99.90;;;;;;5113943;28;20660;-69
2022/02/26 02:59:37;;;;;;;15.07;9.80;;;6.60;99.90;;;;;;5116427;28;20184;-74
2022/02/26 03:02:08;;;;;;;11.00;7.60;;;6.60;99.90;;;;;;5115619;28;20200;-74
2022/02/26 03:04:38;;;;;;;11.52;8.98;;;6.60;99.90;;;;;;5116316;28;20193;-68
2022/02/26 03:07:04;;;;;;;13.30;9.38;;;6.50;99.90;;;;;;5115686;28;20256;-69
2022/02/26 03:09:40;;;;;;;9.82;8.10;;;6.50;99.90;;;;;;5116058;28;20240;-74
2022/02/26 03:12:14;;;;;;;10.85;8.35;;;6.50;99.90;;;;;;5115986;28;20202;-74
2022/02/26 03:14:41;;;;;;;13.88;8.55;;;6.50;99.90;;;;;;5116296;28;20179;-74
2022/02/26 03:17:08;;;;;;;12.88;8.65;;;6.50;99.90;;;;;;5115814;28;20192;-69
2022/02/26 03:19:35;;;;;;;10.15;7.75;;;6.50;99.90;;;;;;5116045;28;20195;-70
2022/02/26 03:22:05;;;;;;;10.85;8.65;;;6.50;99.90;;;;;;5106301;28;20593;-73
2022/02/26 03:24:46;;;;;;;10.55;8.15;;;6.50;99.90;;;;;;5097009;28;20184;-74
2022/02/26 03:27:13;;;;;;;12.32;7.78;;;6.50;99.90;;;;;;5105830;28;20199;-69
2022/02/26 03:29:42;;;;;;;12.30;8.10;;;6.50;99.90;;;;;;5115339;28;20228;-69
2022/02/26 03:32:10;;;;;;;11.90;9.25;;;6.50;99.90;;;;;;5115541;28;20196;-69
2022/02/26 03:34:37;;;;;;;10.55;7.70;;;6.50;99.90;;;;;;5115850;28;20184;-69
2022/02/26 03:37:10;;;;;;;10.55;7.90;;;6.50;99.90;;;;;;5115552;28;20282;-74
2022/02/26 03:39:51;;;;;;;12.38;8.48;;;6.50;99.90;;;;;;5115778;28;20186;-69
2022/02/26 03:42:18;;;;;;;9.43;8.50;;;6.50;99.90;;;;;;5115549;28;20199;-69
2022/02/26 03:44:48;;;;;;;11.85;8.65;;;6.50;99.90;;;;;;5115909;28;20195;-70
2022/02/26 03:47:17;;;;;;;12.45;9.00;;;6.50;99.90;;;;;;5115555;28;20363;-69
2022/02/26 03:49:51;;;;;;;11.32;8.10;;;6.50;99.90;;;;;;5115510;28;20567;-74
2022/02/26 03:52:28;;;;;;;12.77;8.50;;;6.50;99.90;;;;;;5115509;28;20245;-73
2022/02/26 03:54:55;;;;;;;13.57;8.43;;;6.50;99.90;;;;;;5115275;28;20274;-68
2022/02/26 03:57:22;;;;;;;13.18;8.93;;;6.50;99.90;;;;;;5114924;28;20215;-74
2022/02/26 03:59:50;;;;;;;11.45;7.97;;;6.50;99.90;;;;;;5115307;28;20176;-75
2022/02/26 04:02:21;;;;;;;13.60;9.63;;;6.50;99.90;;;;;;5103258;28;20220;-73
2022/02/26 04:04:56;;;;;;;13.18;8.85;;;6.40;99.90;;;;;;5094793;28;20189;-70
2022/02/26 04:07:24;;;;;;;12.77;9.07;;;6.40;99.90;;;;;;5093934;28;20199;-75
2022/02/26 04:09:52;;;;;;;14.48;9.50;;;6.40;99.90;;;;;;5094018;28;20234;-73
2022/02/26 04:12:19;;;;;;;12.73;8.63;;;6.30;99.90;;;;;;5105818;28;20613;-67
2022/02/26 04:14:52;;;;;;;10.77;7.93;;;6.30;99.90;;;;;;5114652;28;20183;-73
2022/02/26 04:17:26;;;;;;;14.23;8.45;;;6.30;99.90;;;;;;5114679;28;20206;-74
2022/02/26 04:20:04;;;;;;;9.43;7.80;;;6.30;99.90;;;;;;5114422;28;20187;-74
2022/02/26 04:22:32;;;;;;;10.05;8.80;;;6.30;99.90;;;;;;5114604;28;20218;-70
2022/02/26 04:25:13;;;;;;;11.10;8.50;;;6.20;99.90;;;;;;5116370;28;20187;-73
2022/02/26 04:27:41;;;;;;;11.55;8.45;;;6.20;99.90;;;;;;5114316;28;20199;-75
2022/02/26 04:30:12;;;;;;;12.50;8.90;;;6.20;99.90;;;;;;5114552;28;20228;-74
2022/02/26 04:32:41;;;;;;;11.25;7.97;;;6.20;99.90;;;;;;5114675;28;20199;-70
2022/02/26 04:35:09;;;;;;;9.93;7.65;;;6.20;99.90;;;;;;5114496;28;20187;-69
2022/02/26 04:37:36;;;;;;;9.82;8.25;;;6.20;99.90;;;;;;5114062;28;20224;-74
2022/02/26 04:40:15;;;;;;;11.48;8.40;;;6.20;99.90;;;;;;5114477;28;20333;-69
2022/02/26 04:42:44;;;;;;;10.70;8.82;;;6.20;99.90;;;;;;5114273;28;20207;-69
2022/02/26 04:45:24;;;;;;;13.75;9.75;;;6.20;99.90;;;;;;5114520;28;20240;-74
2022/02/26 04:47:51;;;;;;;9.15;8.25;;;6.20;99.90;;;;;;5113693;28;20260;-69
2022/02/26 04:50:18;;;;;;;12.15;8.20;;;6.10;99.90;;;;;;5115422;28;20641;-70
2022/02/26 04:52:52;;;;;;;11.75;8.98;;;6.10;99.90;;;;;;5113907;28;20277;-74
2022/02/26 04:55:25;;;;;;;10.70;8.40;;;6.10;99.90;;;;;;5114009;28;20179;-74
2022/02/26 04:57:59;;;;;;;12.32;8.95;;;6.10;99.90;;;;;;5113203;28;20210;-69
2022/02/26 05:00:29;;;;;;;14.65;9.30;;;6.10;99.90;;;;;;5115639;28;20521;-69
2022/02/26 05:03:06;;;;;;;9.75;8.00;;;6.00;99.90;;;;;;5113413;28;20233;-74
2022/02/26 05:05:34;;;;;;;14.52;9.57;;;6.00;99.90;;;;;;5114021;28;20214;-69
2022/02/26 05:08:01;;;;;;;10.32;7.53;;;6.00;99.90;;;;;;5113396;28;20199;-70
2022/02/26 05:10:30;;;;;;;11.90;7.90;;;6.00;99.90;;;;;;5113614;28;20172;-68
2022/02/26 05:13:02;;;;;;;9.98;8.18;;;6.00;99.90;;;;;;5113115;28;20223;-73
2022/02/26 05:15:29;;;;;;;12.23;8.38;;;6.10;99.90;;;;;;5113631;28;20183;-69
2022/02/26 05:17:57;;;;;;;9.30;7.93;;;6.10;99.90;;;;;;5113244;28;20588;-69
2022/02/26 05:20:27;;;;;;;12.85;9.88;;;6.10;99.90;;;;;;5113184;28;20703;-73
2022/02/26 05:22:58;;;;;;;11.13;8.50;;;6.10;99.90;;;;;;5113115;28;20336;-69
2022/02/26 05:25:24;;;;;;;10.93;8.77;;;6.10;99.90;;;;;;5113483;28;20176;-69
2022/02/26 05:27:52;;;;;;;10.55;8.65;;;6.00;99.90;;;;;;5112854;28;20642;-74
2022/02/26 05:30:19;;;;;;;11.35;9.65;;;6.00;99.90;;;;;;5113166;28;20223;-69
2022/02/26 05:32:47;;;;;;;11.95;8.85;;;6.00;99.90;;;;;;5113133;28;20207;-69
2022/02/26 05:35:14;;;;;;;12.73;8.32;;;6.00;99.90;;;;;;5113494;28;20645;-69
2022/02/26 05:37:54;;;;;;;13.82;9.52;;;6.10;99.90;;;;;;5113054;28;20192;-73
2022/02/26 05:40:22;;;;;;;11.77;8.13;;;6.10;99.90;;;;;;5113135;28;20187;-69
2022/02/26 05:42:48;;;;;;;13.35;9.20;;;6.10;99.90;;;;;;5114347;28;20207;-69
2022/02/26 05:45:15;;;;;;;10.30;8.20;;;6.10;99.90;;;;;;5113351;28;20180;-70
2022/02/26 05:47:55;;;;;;;12.55;8.88;;;6.10;99.90;;;;;;5112778;28;20208;-73
2022/02/26 05:50:30;;;;;;;12.48;8.65;;;6.10;99.90;;;;;;5113078;28;20232;-73
2022/02/26 05:53:01;;;;;;;12.52;10.40;;;6.10;99.90;;;;;;5112681;28;20221;-74
2022/02/26 05:55:29;;;;;;;13.82;9.93;;;6.10;99.90;;;;;;5113083;28;20198;-73
2022/02/26 05:57:58;;;;;;;12.07;9.63;;;6.20;99.90;;;;;;5112546;28;20592;-68
2022/02/26 06:00:25;;;;;;;11.75;9.15;;;6.20;99.90;;;;;;5113012;28;20693;-74
2022/02/26 06:03:06;;;;;;;15.40;10.80;;;6.20;99.90;;;;;;5111966;28;20221;-73
2022/02/26 06:05:38;;;;;;;12.30;9.23;;;6.30;99.90;;;;;;5112964;28;20228;-68
2022/02/26 06:08:12;;;;;;;14.90;10.10;;;6.30;99.90;;;;;;5095984;28;20207;-73
2022/02/26 06:10:38;;;;;;;21.55;13.95;;;6.30;99.90;;;;;;5114169;28;20160;-68
2022/02/26 06:13:05;;;;;;;20.42;14.25;;;6.30;99.90;;;;;;5112480;28;20204;-69
2022/02/26 06:15:32;;;;;;;18.60;13.82;;;6.30;99.90;;;;;;5112938;28;20672;-70
2022/02/26 06:18:00;;;;;;;21.50;15.07;;;6.40;99.90;;;;;;5112158;28;20226;-69
2022/02/26 06:20:28;;;;;;;14.93;11.25;;;6.40;99.90;;;;;;5112140;28;20268;-73
2022/02/26 06:23:03;;;;;;;15.57;11.70;;;6.40;99.90;;;;;;5112132;28;20211;-73
2022/02/26 06:25:33;;;;;;;17.35;11.10;;;6.40;99.90;;;;;;5112518;28;20180;-69
2022/02/26 06:28:05;;;;;;;15.27;10.88;;;6.40;99.90;;;;;;5113509;28;20207;-73
2022/02/26 06:30:33;;;;;;;15.10;11.02;;;6.40;99.90;;;;;;5112700;28;20626;-70
2022/02/26 06:33:02;;;;;;;20.50;11.30;;;6.40;99.90;;;;;;5115896;28;20680;-68
2022/02/26 06:35:31;;;;;;;22.10;15.20;;;6.50;99.90;;;;;;5116797;28;20267;-73
2022/02/26 06:38:06;;;;;;;18.20;12.48;;;6.50;99.90;;;;;;5116043;28;20348;-69
2022/02/26 06:40:35;;;;;;;21.38;14.32;;;6.50;99.90;;;;;;5116667;28;20179;-69
2022/02/26 06:43:02;;;;;;;15.60;12.10;;;6.50;99.90;;;;;;5116190;28;20207;-73
2022/02/26 06:45:33;;;;;;;14.80;10.82;;;6.50;99.90;;;;;;5116613;28;20552;-73
2022/02/26 06:48:01;;;;;;;14.13;10.38;;;6.50;99.90;;;;;;5116136;28;20602;-70
2022/02/26 06:50:30;;;;;;;13.20;9.15;;;6.60;99.90;;;;;;5116371;28;20183;-69
2022/02/26 06:53:16;;;;;;;10.60;8.23;;;6.60;99.90;;;;;;5115569;28;20215;-74
2022/02/26 06:55:53;;;;;;;13.15;8.70;;;6.60;99.90;;;;;;5116336;28;20521;-73
2022/02/26 06:58:21;;;;;;;11.55;8.32;;;6.60;99.90;;;;;;5115913;28;20699;-69
2022/02/26 07:00:47;;;;;;;14.50;9.65;;;6.70;99.90;;;;;;5116321;28;20193;-73
2022/02/26 07:03:14;;;;;;;15.57;9.25;;;6.80;99.90;;;;;;5115853;28;20211;-71
2022/02/26 07:05:46;;;;;;;15.13;9.82;;;6.80;99.90;;;;;;5116220;28;20175;-73
2022/02/26 07:08:15;;;;;;;12.25;7.88;;;6.80;99.90;;;;;;5115755;28;20204;-74
2022/02/26 07:10:46;;;;;;;12.48;9.15;;;6.90;99.90;;;;;;5116309;28;20612;-69
2022/02/26 07:13:13;;;;;;;11.15;7.28;;;6.90;99.90;;;;;;5116137;28;20264;-69
2022/02/26 07:15:50;;;;;;;13.50;7.63;;;7.00;99.90;;;;;;5116093;28;20183;-74
2022/02/26 07:18:17;;;;;;;10.88;7.60;;;7.00;99.90;;;;;;5115616;28;20254;-69
2022/02/26 07:20:45;;;;;;;10.00;7.85;;;7.10;99.90;;;;;;5115845;28;20179;-68
2022/02/26 07:23:12;;;;;;;10.57;6.25;;;7.10;99.90;;;;;;5115478;28;20598;-74
2022/02/26 07:25:42;;;;;;;10.50;7.38;;;7.10;99.90;;;;;;5115963;28;20254;-69
2022/02/26 07:28:10;;;;;;;8.00;6.65;;;7.10;99.90;;;;;;5115688;28;20208;-73
2022/02/26 07:30:51;;;;;;;11.07;7.70;;;7.20;99.90;;;;;;5116965;28;20224;-73
2022/02/26 07:33:19;;;;;;;9.70;7.80;;;7.20;99.90;;;;;;5098418;28;20323;-73
2022/02/26 07:35:47;;;;;;;7.45;6.65;;;7.30;99.90;;;;;;5098734;28;20260;-73
2022/02/26 07:38:17;;;;;;;12.30;7.28;;;7.30;99.90;;;;;;5098369;28;20192;-74
2022/02/26 07:40:49;;;;;;;11.15;8.32;;;7.30;99.90;;;;;;5098546;28;20175;-74
2022/02/26 07:43:17;;;;;;;8.55;6.45;;;7.40;99.90;;;;;;5097944;28;20237;-70
2022/02/26 07:45:49;;;;;;;9.73;7.40;;;7.50;99.90;;;;;;5098335;28;20175;-69
2022/02/26 07:48:17;;;;;;;9.05;6.60;;;7.50;99.90;;;;;;5116361;28;20265;-73
2022/02/26 07:50:45;;;;;;;9.60;5.72;;;7.60;99.90;;;;;;5098067;28;20180;-74
2022/02/26 07:53:11;;;;;;;10.05;6.22;;;7.70;99.90;;;;;;5097870;28;20199;-70
2022/02/26 07:55:39;;;;;;;8.77;5.05;;;7.80;99.90;;;;;;5116795;28;20168;-69
2022/02/26 07:58:11;;;;;;;7.82;6.55;;;7.80;99.90;;;;;;5097679;28;20206;-74
2022/02/26 08:00:41;;;;;;;10.38;5.82;;;7.90;99.90;;;;;;5098024;28;20261;-69
2022/02/26 08:03:08;;;;;;;7.18;6.18;;;8.00;99.90;;;;;;5079797;28;20224;-69
2022/02/26 08:05:38;;;;;;;7.43;5.82;;;8.10;99.90;;;;;;5077892;28;20176;-74
2022/02/26 08:08:13;;;;;;;6.25;4.90;;;8.20;99.90;;;;;;5077614;28;20593;-70
2022/02/26 08:10:42;;;;;;;8.63;5.03;;;8.60;99.90;;;;;;5077216;28;20275;-70
2022/02/26 08:13:20;;;;;;;8.82;5.43;;;8.90;99.90;;;;;;5093752;28;20217;-74
2022/02/26 08:15:51;;;;;;;8.20;5.57;;;9.40;99.90;;;;;;5096233;28;20577;-74
2022/02/26 08:18:21;;;;;;;8.50;5.53;;;9.80;99.90;;;;;;5097705;28;20211;-70
2022/02/26 08:20:51;;;;;;;6.57;4.85;;;10.20;99.40;;;;;;5097816;28;20633;-74
2022/02/26 08:23:20;;;;;;;7.78;5.60;;;10.60;99.70;;;;;;5097424;28;20231;-74
2022/02/26 08:25:51;;;;;;;6.47;5.65;;;11.00;98.50;;;;;;5097648;28;20175;-70
2022/02/26 08:28:17;;;;;;;6.85;6.13;;;11.40;97.40;;;;;;5097147;28;20211;-69
2022/02/26 08:30:48;;;;;;;6.68;4.93;;;11.80;95.90;;;;;;5113567;28;20220;-74
2022/02/26 08:33:15;;;;;;;7.60;6.03;;;12.30;94.90;;;;;;5113452;28;20230;-70
2022/02/26 08:35:42;;;;;;;12.52;5.45;;;12.90;94.10;;;;;;5112226;28;20180;-70
2022/02/26 08:38:25;;;;;;;4.80;4.30;;;13.40;92.10;;;;;;5112085;28;20561;-75
2022/02/26 08:40:57;;;;;;;8.02;5.28;;;13.80;93.20;;;;;;5112664;28;20184;-74
2022/02/26 08:43:24;;;;;;;6.60;5.78;;;14.20;90.90;;;;;;5112448;28;20220;-74
2022/02/26 08:45:55;;;;;;;8.27;4.90;;;14.50;90.00;;;;;;5112467;28;20263;-75
2022/02/26 08:48:21;;;;;;;5.53;4.93;;;14.80;87.30;;;;;;5112699;28;20637;-70
2022/02/26 08:50:49;;;;;;;6.33;4.20;;;15.10;86.10;;;;;;5114106;28;20424;-69
2022/02/26 08:53:26;;;;;;;6.77;5.30;;;15.30;89.20;;;;;;5113757;28;20482;-69
2022/02/26 08:56:12;;;;;;;5.73;4.90;;;15.20;88.80;;;;;;5112929;28;20415;-74
2022/02/26 08:58:41;;;;;;;6.37;3.83;;;15.10;89.70;;;;;;5114090;28;20814;-74
2022/02/26 09:01:11;;;;;;;7.90;5.10;;;14.90;90.70;;;;;;5115381;28;20476;-70
2022/02/26 09:03:38;;;;;;;4.77;3.23;;;14.80;90.90;;;;;;5113711;28;20479;-70
2022/02/26 09:06:07;;;;;;;7.77;4.13;;;14.90;89.00;;;;;;5113418;28;20431;-68
2022/02/26 09:08:38;;;;;;;6.20;3.80;;;15.20;90.50;;;;;;5113655;28;20534;-70
2022/02/26 09:11:08;;;;;;;9.93;5.83;;;15.40;91.80;;;;;;5113635;28;20420;-70
2022/02/26 09:13:53;;;;;;;4.63;3.50;;;15.70;91.10;;;;;;5113962;28;20451;-70
2022/02/26 09:16:20;;;;;;;7.13;4.73;;;15.90;91.20;;;;;;5113418;28;20444;-70
2022/02/26 09:19:11;;;;;;;5.70;4.43;;;16.20;87.70;;;;;;5113750;28;20471;-70
2022/02/26 09:21:39;;;;;;;9.50;4.77;;;16.70;81.60;;;;;;5112540;28;20436;-74
2022/02/26 09:24:07;;;;;;;5.00;4.00;;;17.30;84.30;;;;;;5113338;28;20483;-70
2022/02/26 09:26:37;;;;;;;5.03;4.17;;;17.70;83.50;;;;;;5113231;28;20913;-74
2022/02/26 09:29:08;;;;;;;7.63;4.70;;;18.00;78.50;;;;;;5113033;28;20550;-74
2022/02/26 09:31:40;;;;;;;5.60;3.57;;;18.20;82.20;;;;;;5113207;28;20947;-71
2022/02/26 09:34:16;;;;;;;8.00;4.00;;;18.20;81.90;;;;;;5113292;28;20459;-75
2022/02/26 09:36:46;;;;;;;8.10;4.17;;;18.30;81.90;;;;;;5113049;28;20779;-75
2022/02/26 09:39:14;;;;;;;4.73;3.80;;;18.20;79.80;;;;;;5112963;28;20436;-70
2022/02/26 09:41:50;;;;;;;5.47;3.70;;;18.00;78.40;;;;;;5112344;28;20459;-71
2022/02/26 09:44:20;;;;;;;4.07;3.60;;;17.70;78.60;;;;;;5113050;28;20837;-69
2022/02/26 09:46:58;;;;;;;5.50;4.10;;;17.50;76.30;;;;;;5113049;28;20515;-74
2022/02/26 09:49:25;;;;;;;5.00;3.87;;;17.50;82.00;;;;;;5113368;28;20416;-73
2022/02/26 09:51:51;;;;;;;3.73;3.00;;;17.50;82.80;;;;;;5114166;28;20444;-70
2022/02/26 09:54:20;;;;;;;5.57;3.70;;;17.50;81.80;;;;;;5112821;28;20431;-69
2022/02/26 09:56:48;;;;;;;6.77;3.60;;;17.50;82.80;;;;;;5112688;28;20424;-70
2022/02/26 09:59:16;;;;;;;5.90;3.90;;;17.50;82.90;;;;;;5113157;28;20436;-70
2022/02/26 10:02:13;;;;;;;9.90;3.80;;;17.50;75.20;;;;;;5112368;28;20523;-74
2022/02/26 10:04:54;;;;;;;6.80;3.97;;;17.60;81.50;;;;;;5112759;28;20501;-75
2022/02/26 10:07:24;;;;;;;8.23;3.37;;;17.80;72.60;;;;;;5112487;28;20439;-70
2022/02/26 10:09:53;;;;;;;14.53;5.23;;;18.00;77.40;;;;;;5113021;28;20447;-71
2022/02/26 10:12:32;;;;;;;6.40;4.10;;;18.10;80.60;;;;;;5112450;28;20432;-70
2022/02/26 10:15:01;;;;;;;5.87;3.60;;;18.00;77.30;;;;;;5112781;28;20466;-70
2022/02/26 10:17:34;;;;;;;6.00;3.50;;;17.80;72.10;;;;;;5112781;28;20464;-70
2022/02/26 10:20:22;;;;;;;4.60;3.67;;;17.60;70.90;;;;;;5112585;28;20467;-72
2022/02/26 10:22:55;;;;;;;5.70;3.93;;;17.40;71.80;;;;;;5112592;28;20464;-70
2022/02/26 10:25:30;;;;;;;8.60;4.67;;;17.20;74.30;;;;;;5112861;28;20952;-71
2022/02/26 10:28:06;;;;;;;4.90;3.63;;;16.90;73.30;;;;;;5111484;28;20563;-75
2022/02/26 10:30:40;;;;;;;5.60;3.30;;;16.70;76.60;;;;;;5112555;28;20960;-70
2022/02/26 10:33:23;;;;;;;4.97;3.67;;;16.40;69.40;;;;;;5112264;28;20448;-70
2022/02/26 10:35:59;;;;;;;6.40;3.80;;;16.30;76.70;;;;;;5112373;28;20424;-74
2022/02/26 10:38:38;;;;;;;5.20;3.47;;;16.00;74.90;;;;;;5112817;28;20447;-75
2022/02/26 10:41:13;;;;;;;5.90;4.10;;;15.90;79.20;;;;;;5112201;28;20432;-70
2022/02/26 10:43:55;;;;;;;5.43;4.43;;;15.70;82.90;;;;;;5112424;28;20475;-71
2022/02/26 10:46:30;;;;;;;6.03;3.93;;;15.60;77.30;;;;;;5112003;28;20935;-70
2022/02/26 10:49:05;;;;;;;6.37;3.97;;;15.40;79.20;;;;;;5112348;28;20508;-75
2022/02/26 10:51:41;;;;;;;5.63;4.00;;;15.40;74.60;;;;;;5113685;28;20408;-74
2022/02/26 10:54:10;;;;;;;7.20;3.90;;;15.30;74.60;;;;;;5112487;28;20423;-70
2022/02/26 10:56:42;;;;;;;6.90;3.80;;;15.20;71.50;;;;;;5112254;28;20982;-74
2022/02/26 10:59:29;;;;;;;6.20;4.43;;;15.10;71.60;;;;;;5111706;28;20431;-74
2022/02/26 11:02:08;;;;;;;7.37;5.13;;;15.00;73.50;;;;;;5103462;28;20424;-71
2022/02/26 11:04:48;;;;;;;4.70;3.70;;;14.90;74.70;;;;;;5091417;28;20561;-75
2022/02/26 11:07:19;;;;;;;9.83;4.13;;;14.80;74.60;;;;;;5092394;28;20433;-71
2022/02/26 11:09:53;;;;;;;9.03;3.63;;;14.70;71.10;;;;;;5091657;28;20440;-71
2022/02/26 11:12:24;;;;;;;6.70;3.77;;;14.60;70.10;;;;;;5091575;28;20439;-71
2022/02/26 11:15:01;;;;;;;4.37;3.90;;;14.60;74.60;;;;;;5092194;28;20462;-75
2022/02/26 11:17:40;;;;;;;7.47;3.97;;;14.60;70.90;;;;;;5092497;28;20437;-71
2022/02/26 11:20:26;;;;;;;5.90;4.20;;;14.50;76.30;;;;;;5095640;28;20427;-75
2022/02/26 11:23:06;;;;;;;5.00;3.20;;;14.50;75.00;;;;;;5093121;28;20513;-75
2022/02/26 11:25:42;;;;;;;9.20;3.57;;;14.40;75.00;;;;;;5093635;28;20474;-69
2022/02/26 11:28:14;;;;;;;6.20;3.50;;;14.40;78.10;;;;;;5092983;28;20444;-71
2022/02/26 11:30:55;;;;;;;9.20;3.40;;;14.40;79.80;;;;;;5093153;28;20460;-71
2022/02/26 11:33:23;;;;;;;5.00;3.77;;;14.40;78.30;;;;;;5092993;28;20517;-71
2022/02/26 11:35:51;;;;;;;5.73;3.50;;;14.30;72.30;;;;;;5093734;28;20504;-70
2022/02/26 11:38:22;;;;;;;6.70;3.83;;;14.20;73.80;;;;;;5094791;28;20460;-70
2022/02/26 11:41:20;;;;;;;6.10;3.40;;;14.20;78.10;;;;;;5095188;28;20444;-70
2022/02/26 11:43:56;;;;;;;5.20;3.57;;;14.20;72.70;;;;;;5094845;28;20583;-75
2022/02/26 11:46:34;;;;;;;4.87;3.83;;;14.20;72.20;;;;;;5095214;28;20427;-75
2022/02/26 11:49:18;;;;;;;5.67;3.43;;;14.30;75.00;;;;;;5095078;28;20479;-74
2022/02/26 11:51:49;;;;;;;5.17;3.13;;;14.30;77.00;;;;;;5101387;28;20424;-75
2022/02/26 11:54:26;;;;;;;6.57;3.30;;;14.30;73.00;;;;;;5114643;28;20519;-74
2022/02/26 11:56:57;;;;;;;7.10;3.80;;;14.30;77.70;;;;;;5114813;28;20426;-75
2022/02/26 11:59:49;;;;;;;5.30;3.83;;;14.40;76.70;;;;;;5117093;28;20432;-71
2022/02/26 12:02:18;;;;;;;4.67;2.80;;;14.40;74.30;;;;;;5115027;28;20812;-71
2022/02/26 12:04:58;;;;;;;14.40;4.30;;;14.40;75.30;;;;;;5115070;28;20490;-71
2022/02/26 12:07:45;;;;;;;6.17;3.67;;;14.40;81.60;;;;;;5114686;28;20530;-71
2022/02/26 12:10:13;;;;;;;6.17;3.27;;;14.40;76.00;;;;;;5115028;28;20505;-71
2022/02/26 12:13:02;;;;;;;6.93;3.20;;;14.40;79.80;;;;;;5114744;28;20440;-75
2022/02/26 12:15:32;;;;;;;7.60;2.60;;;14.40;75.40;;;;;;5114936;28;20462;-71
2022/02/26 12:18:12;;;;;;;5.30;3.33;;;14.30;76.80;;;;;;5114473;28;20519;-75
2022/02/26 12:20:42;;;;;;;3.30;3.00;;;14.20;81.10;;;;;;5115168;28;20419;-71
2022/02/26 12:23:11;;;;;;;12.60;3.93;;;14.10;81.00;;;;;;5115605;28;20625;-72
2022/02/26 12:25:42;;;;;;;3.50;3.10;;;14.00;74.60;;;;;;5114789;28;20423;-70
2022/02/26 12:28:27;;;;;;;3.87;3.00;;;14.00;73.70;;;;;;5114294;28;20436;-75
2022/02/26 12:31:10;;;;;;;5.67;3.30;;;13.80;71.50;;;;;;5114255;28;20746;-69
2022/02/26 12:33:44;;;;;;;5.17;3.30;;;13.70;73.20;;;;;;5116402;28;20531;-75
2022/02/26 12:36:15;;;;;;;7.77;2.60;;;13.70;76.40;;;;;;5114110;28;20489;-70
2022/02/26 12:38:59;;;;;;;4.50;2.60;;;13.60;77.80;;;;;;5114477;28;20459;-71
2022/02/26 12:41:36;;;;;;;3.50;2.70;;;13.50;71.70;;;;;;5114270;28;20412;-75
2022/02/26 12:44:04;;;;;;;3.30;2.92;;;13.30;72.40;;;;;;5113980;28;20318;-71
2022/02/26 12:46:38;;;;;;;4.07;2.60;;;13.20;69.50;;;;;;5114040;28;20636;-75
2022/02/26 12:49:10;;;;;;;7.22;3.10;;;13.10;69.10;;;;;;5114247;28;20187;-75
2022/02/26 12:51:49;;;;;;;8.73;3.67;;;13.10;74.80;;;;;;5094173;28;20172;-75
2022/02/26 12:54:32;;;;;;;6.60;3.13;;;13.10;75.20;;;;;;5092496;28;20440;-74
2022/02/26 12:57:00;;;;;;;4.43;3.30;;;13.00;78.60;;;;;;5100993;28;20203;-71
2022/02/26 12:59:29;;;;;;;3.03;2.47;;;13.00;69.60;;;;;;5112566;28;20184;-70
2022/02/26 13:01:57;;;;;;;4.30;3.15;;;12.90;69.10;;;;;;5112767;28;20183;-75
2022/02/26 13:04:34;;;;;;;5.38;2.70;;;12.90;69.40;;;;;;5112908;28;20216;-75
2022/02/26 13:07:13;;;;;;;3.10;2.70;;;13.00;69.60;;;;;;5113184;28;20195;-70
2022/02/26 13:10:00;;;;;;;8.63;3.65;;;13.00;74.70;;;;;;5113914;28;20236;-75
2022/02/26 13:12:34;;;;;;;7.43;3.70;;;13.10;76.90;;;;;;5113672;28;20192;-71